Time;durP1;ratioP1;P1;durP2;ratioP2;P2;SDS_P1;SDS_P2;PMS_P1;PMS_P2;Temp;Humidity;BMP_temperature;BMP_pressure;BME280_temperature;BME280_humidity;BME280_pressure;Samples;Min_cycle;Max_cycle;Signal;HPM_P1;HPM_P2
2022/10/01 07:52:38;;;;;;;11.53;10.43;;;14.30;99.90;;;;;;5127633;27;20780;-83
2022/10/01 07:55:04;;;;;;;10.80;9.77;;;14.30;99.90;;;;;;5128263;28;20173;-82
2022/10/01 07:57:33;;;;;;;11.07;10.07;;;14.30;99.90;;;;;;5111304;28;20179;-81
2022/10/01 07:59:59;;;;;;;11.60;8.43;;;14.30;99.90;;;;;;5128565;28;20169;-84
2022/10/01 08:02:25;;;;;;;10.87;8.47;;;14.50;99.90;;;;;;5127603;28;20186;-84
2022/10/01 08:07:35;;;;;;;7.70;7.10;;;14.80;99.90;;;;;;5114177;28;20765;-83
2022/10/01 08:10:03;;;;;;;8.03;7.43;;;15.00;99.90;;;;;;5105692;28;20187;-84
2022/10/01 08:12:29;;;;;;;8.67;7.97;;;15.00;99.90;;;;;;5123056;28;20287;-83
2022/10/01 08:14:55;;;;;;;6.83;6.33;;;15.10;99.90;;;;;;5121015;28;20875;-83
2022/10/01 08:17:20;;;;;;;6.00;5.60;;;15.30;99.90;;;;;;5121022;28;20216;-84
2022/10/01 08:19:48;;;;;;;6.03;5.63;;;15.20;99.90;;;;;;5120371;28;20238;-84
2022/10/01 08:22:13;;;;;;;6.30;5.70;;;15.20;99.90;;;;;;5120601;28;20191;-83
2022/10/01 08:24:39;;;;;;;5.97;5.50;;;15.40;99.90;;;;;;5121495;28;20173;-84
2022/10/01 08:27:05;;;;;;;5.93;5.43;;;15.50;99.90;;;;;;5120792;28;20594;-83
2022/10/01 08:29:32;;;;;;;6.17;5.77;;;15.70;99.90;;;;;;5102174;28;20524;-83
2022/10/01 08:31:58;;;;;;;6.53;6.13;;;15.80;99.90;;;;;;5121067;28;20209;-82
2022/10/01 08:34:24;;;;;;;6.40;6.00;;;16.00;99.90;;;;;;5103759;28;20834;-84
2022/10/01 08:36:52;;;;;;;6.20;5.70;;;16.20;99.90;;;;;;5120888;28;20264;-84
2022/10/01 08:39:19;;;;;;;6.53;6.07;;;16.40;99.90;;;;;;5121016;28;20835;-84
2022/10/01 08:41:59;;;;;;;7.07;6.40;;;16.50;99.90;;;;;;5118904;28;20188;-84
2022/10/01 08:44:36;;;;;;;12.03;11.03;;;16.60;99.90;;;;;;5119144;28;20715;-84
2022/10/01 08:47:16;;;;;;;6.33;5.93;;;16.70;99.90;;;;;;5119765;28;20172;-84
2022/10/01 08:49:49;;;;;;;7.00;6.50;;;16.60;99.90;;;;;;5119556;28;20254;-84
2022/10/01 08:52:27;;;;;;;7.97;7.37;;;16.60;99.90;;;;;;5119011;28;21868;-84
2022/10/01 08:55:25;;;;;;;7.80;7.20;;;16.60;99.90;;;;;;5126834;27;20177;-83
2022/10/01 08:57:55;;;;;;;6.67;6.10;;;16.60;99.90;;;;;;5067258;28;20316;-83
2022/10/01 09:00:21;;;;;;;6.03;5.73;;;16.80;99.90;;;;;;5057103;28;20195;-83
2022/10/01 09:02:48;;;;;;;6.73;5.70;;;17.00;99.90;;;;;;5041737;28;20188;-92
2022/10/01 09:05:39;;;;;;;5.73;5.33;;;17.00;99.90;;;;;;5056720;28;20173;-96
2022/10/01 09:08:42;;;;;;;4.80;4.60;;;17.00;99.90;;;;;;5036492;28;20188;-88
2022/10/01 09:11:25;;;;;;;5.33;4.93;;;17.10;99.90;;;;;;5035210;28;20674;-92
2022/10/01 09:14:12;;;;;;;4.30;4.10;;;17.20;99.90;;;;;;5033743;28;20219;-91
2022/10/01 09:16:41;;;;;;;5.00;4.60;;;17.30;99.90;;;;;;5033831;28;20574;-91
2022/10/01 09:19:09;;;;;;;5.37;4.97;;;17.40;99.90;;;;;;5033248;28;20184;-91
2022/10/01 09:22:12;;;;;;;7.53;7.00;;;17.50;99.90;;;;;;5024617;28;20218;-92
2022/10/01 09:24:53;;;;;;;5.50;5.20;;;17.50;99.90;;;;;;5039562;28;20183;-92
2022/10/01 09:27:27;;;;;;;4.93;4.63;;;17.50;99.90;;;;;;5035051;28;20214;-91
2022/10/01 09:30:00;;;;;;;4.93;4.63;;;17.60;99.90;;;;;;5038864;28;20179;-84
2022/10/01 09:32:32;;;;;;;4.17;3.97;;;17.60;99.90;;;;;;5037841;28;20211;-84
2022/10/01 09:35:06;;;;;;;4.40;4.10;;;17.50;99.90;;;;;;5112952;28;20219;-84
2022/10/01 09:37:47;;;;;;;4.47;4.20;;;17.40;99.90;;;;;;5112561;28;20165;-84
2022/10/01 09:40:26;;;;;;;4.87;4.60;;;17.30;99.90;;;;;;5112491;28;20204;-83
2022/10/01 09:42:51;;;;;;;5.43;5.13;;;17.20;99.90;;;;;;5111894;28;20231;-84
2022/10/01 09:45:20;;;;;;;5.30;4.83;;;17.10;99.90;;;;;;5111961;28;20182;-83
2022/10/01 09:47:50;;;;;;;5.50;5.07;;;16.90;99.90;;;;;;5112365;28;20202;-84
2022/10/01 09:50:29;;;;;;;5.83;5.43;;;16.90;99.90;;;;;;5111839;28;20170;-83
2022/10/01 09:52:59;;;;;;;6.27;4.87;;;16.80;99.90;;;;;;5111790;28;20171;-85
2022/10/01 09:55:37;;;;;;;5.13;4.70;;;16.80;99.90;;;;;;5112546;28;20265;-84
2022/10/01 09:58:14;;;;;;;5.27;4.97;;;16.90;99.90;;;;;;5112281;28;20173;-84
2022/10/01 10:00:41;;;;;;;4.80;4.50;;;16.90;99.90;;;;;;5093763;28;20169;-85
2022/10/01 10:03:07;;;;;;;4.23;4.03;;;17.00;99.90;;;;;;5111540;28;20229;-85
2022/10/01 10:05:45;;;;;;;4.70;4.40;;;17.00;99.90;;;;;;5111706;28;20201;-84
2022/10/01 10:08:12;;;;;;;5.47;4.97;;;17.10;99.90;;;;;;5111800;28;20275;-83
2022/10/01 10:10:48;;;;;;;5.97;5.57;;;17.10;99.90;;;;;;5093169;28;20909;-82
2022/10/01 10:13:23;;;;;;;4.87;4.57;;;17.10;99.90;;;;;;5092986;28;20176;-83
2022/10/01 10:15:50;;;;;;;4.30;4.00;;;17.10;99.90;;;;;;5110591;28;20158;-82
2022/10/01 10:18:21;;;;;;;4.53;4.17;;;17.10;99.90;;;;;;5111527;28;20169;-82
2022/10/01 10:20:51;;;;;;;4.03;3.83;;;17.30;99.90;;;;;;5111348;28;20528;-83
2022/10/01 10:23:20;;;;;;;5.40;5.00;;;17.50;99.90;;;;;;5111063;28;20648;-81
2022/10/01 10:26:01;;;;;;;6.57;4.90;;;17.50;99.90;;;;;;5092958;28;20285;-84
2022/10/01 10:28:37;;;;;;;5.03;4.63;;;17.60;99.90;;;;;;5111204;28;20162;-83
2022/10/01 10:31:28;;;;;;;4.20;4.00;;;17.70;99.90;;;;;;5112356;28;20652;-83
2022/10/01 10:34:12;;;;;;;3.93;3.63;;;18.10;99.90;;;;;;5123274;28;20533;-84
2022/10/01 10:36:39;;;;;;;4.13;3.90;;;18.10;99.90;;;;;;5112595;28;20174;-83
2022/10/01 10:39:13;;;;;;;4.00;3.80;;;18.30;99.90;;;;;;5111997;28;20582;-83
2022/10/01 10:41:45;;;;;;;4.37;4.17;;;18.50;99.90;;;;;;5111243;28;20619;-83
2022/10/01 10:44:15;;;;;;;3.80;3.60;;;18.60;99.90;;;;;;5095234;28;20528;-83
2022/10/01 10:46:43;;;;;;;4.17;3.87;;;18.70;99.90;;;;;;5094958;28;20181;-82
2022/10/01 10:49:26;;;;;;;3.70;3.50;;;18.90;99.90;;;;;;5094036;28;20543;-83
2022/10/01 10:51:54;;;;;;;3.60;3.40;;;19.00;99.90;;;;;;5112184;28;20240;-83
2022/10/01 10:54:40;;;;;;;3.70;3.50;;;19.10;99.90;;;;;;5111481;28;20170;-84
2022/10/01 10:57:27;;;;;;;3.83;3.60;;;19.20;99.90;;;;;;5112847;28;20285;-83
2022/10/01 11:00:13;;;;;;;4.27;3.87;;;19.20;99.90;;;;;;5112716;28;20277;-83
2022/10/01 11:02:47;;;;;;;3.37;3.17;;;19.10;99.90;;;;;;5112038;28;20176;-83
2022/10/01 11:05:30;;;;;;;3.47;3.30;;;19.00;99.90;;;;;;5113171;28;20162;-84
2022/10/01 11:08:03;;;;;;;4.43;3.53;;;19.00;99.90;;;;;;5112126;28;20894;-83
2022/10/01 11:10:43;;;;;;;3.50;3.23;;;19.00;99.90;;;;;;5112022;28;20166;-84
2022/10/01 11:13:41;;;;;;;3.77;3.57;;;18.90;99.90;;;;;;5110274;28;20169;-84
2022/10/01 11:16:25;;;;;;;4.13;3.73;;;19.00;99.90;;;;;;5092288;28;20750;-85
2022/10/01 11:19:03;;;;;;;4.00;3.70;;;19.10;99.90;;;;;;5110372;28;20232;-84
2022/10/01 11:21:54;;;;;;;3.70;3.50;;;19.30;99.90;;;;;;5110230;28;20158;-84
2022/10/01 11:24:26;;;;;;;4.33;4.00;;;19.50;99.90;;;;;;5110069;28;20305;-85
2022/10/01 11:27:05;;;;;;;4.13;3.73;;;19.60;99.90;;;;;;5110084;28;20223;-84
2022/10/01 11:29:42;;;;;;;3.40;3.30;;;19.50;99.90;;;;;;5110294;28;20157;-85
2022/10/01 11:32:37;;;;;;;4.20;4.00;;;19.60;99.90;;;;;;5110628;28;20300;-84
2022/10/01 11:35:21;;;;;;;3.80;3.60;;;19.80;99.90;;;;;;5110433;28;20201;-85
2022/10/01 11:38:16;;;;;;;3.83;3.57;;;19.90;99.90;;;;;;5110245;28;20166;-84
2022/10/01 11:40:57;;;;;;;3.60;3.50;;;20.00;99.90;;;;;;5111145;28;20252;-85
2022/10/01 11:43:28;;;;;;;3.87;3.67;;;20.00;99.90;;;;;;5110879;28;20158;-84
2022/10/01 11:46:05;;;;;;;3.43;3.33;;;19.90;99.90;;;;;;5110328;28;20170;-85
2022/10/01 11:48:40;;;;;;;3.53;3.43;;;19.90;99.90;;;;;;5110107;28;20158;-85
2022/10/01 11:51:16;;;;;;;4.10;3.90;;;20.00;99.90;;;;;;5109911;28;20255;-85
2022/10/01 11:53:48;;;;;;;4.13;3.60;;;20.00;99.90;;;;;;5091714;28;20177;-84
2022/10/01 11:59:37;;;;;;;3.63;3.43;;;20.00;99.90;;;;;;5110453;28;20173;-85
2022/10/01 12:02:14;;;;;;;3.60;3.40;;;20.20;99.90;;;;;;5070601;28;20189;-85
2022/10/01 12:05:10;;;;;;;3.70;3.50;;;20.10;99.90;;;;;;5109783;28;20150;-83
2022/10/01 12:07:57;;;;;;;3.83;3.63;;;20.00;99.90;;;;;;5106692;28;20190;-83
2022/10/01 12:10:43;;;;;;;3.87;3.50;;;19.90;99.90;;;;;;5118948;28;20166;-85
2022/10/01 12:13:15;;;;;;;3.43;3.23;;;20.10;99.90;;;;;;5111364;28;20241;-84
2022/10/01 12:16:05;;;;;;;3.23;3.13;;;20.20;99.90;;;;;;5110275;28;20263;-84
2022/10/01 12:18:56;;;;;;;3.73;3.43;;;20.20;99.90;;;;;;5110244;28;20154;-84
2022/10/01 12:22:05;;;;;;;3.40;3.13;;;20.20;99.90;;;;;;5108951;28;20209;-84
2022/10/01 12:24:39;;;;;;;3.07;2.90;;;20.20;99.90;;;;;;4991705;28;20184;-84
2022/10/01 12:27:30;;;;;;;3.23;2.93;;;20.10;99.90;;;;;;5007670;28;20191;-85
2022/10/01 12:30:04;;;;;;;3.10;2.90;;;20.10;99.90;;;;;;5007592;28;20185;-84
2022/10/01 12:32:54;;;;;;;3.40;3.20;;;20.10;99.90;;;;;;4990972;28;20402;-84
2022/10/01 12:35:35;;;;;;;2.50;2.40;;;20.20;99.90;;;;;;4990730;28;20216;-85
2022/10/01 12:38:43;;;;;;;3.27;3.07;;;20.10;99.90;;;;;;5008270;28;20169;-84
2022/10/01 12:41:41;;;;;;;3.10;2.90;;;20.10;99.90;;;;;;5010949;28;20169;-84
2022/10/01 12:44:32;;;;;;;2.73;2.63;;;20.10;99.90;;;;;;4951963;29;20191;-84
2022/10/01 12:47:10;;;;;;;2.63;2.53;;;20.20;99.90;;;;;;4952261;29;20797;-84
2022/10/01 12:49:50;;;;;;;2.70;2.60;;;20.30;99.90;;;;;;4953542;29;20678;-84
2022/10/01 12:52:48;;;;;;;2.60;2.40;;;20.30;99.90;;;;;;4937703;29;20608;-84
2022/10/01 12:55:22;;;;;;;2.93;2.70;;;20.20;99.90;;;;;;4959660;28;20225;-84
2022/10/01 12:58:17;;;;;;;3.53;2.70;;;20.20;99.90;;;;;;5010299;28;20294;-84
2022/10/01 13:01:16;;;;;;;2.70;2.60;;;20.20;99.90;;;;;;5010353;28;20688;-84
2022/10/01 13:04:02;;;;;;;3.23;3.03;;;20.20;99.90;;;;;;5010106;28;20253;-84
2022/10/01 13:07:04;;;;;;;5.07;3.23;;;20.30;99.90;;;;;;5010105;28;20271;-83
2022/10/01 13:09:58;;;;;;;3.30;3.10;;;20.20;99.90;;;;;;5010159;28;20286;-84
2022/10/01 13:12:39;;;;;;;3.00;2.90;;;20.30;99.90;;;;;;4961530;28;20229;-84
2022/10/01 13:15:10;;;;;;;3.07;2.97;;;20.30;99.90;;;;;;5009815;28;20243;-84
2022/10/01 13:17:45;;;;;;;3.13;2.93;;;20.30;99.90;;;;;;5010180;28;20201;-83
2022/10/01 13:20:14;;;;;;;3.80;3.60;;;20.30;99.90;;;;;;5080188;28;20207;-84
2022/10/01 13:22:57;;;;;;;3.80;3.50;;;20.20;99.90;;;;;;5115498;28;20189;-86
2022/10/01 13:25:36;;;;;;;3.20;3.10;;;20.20;99.90;;;;;;5123123;28;20188;-83
2022/10/01 13:28:20;;;;;;;3.77;3.47;;;20.10;99.90;;;;;;5113795;28;20170;-83
2022/10/01 13:31:00;;;;;;;3.47;3.27;;;20.10;99.90;;;;;;5112951;28;20197;-84
2022/10/01 13:33:28;;;;;;;3.80;3.60;;;19.90;99.90;;;;;;5112936;28;20162;-83
2022/10/01 13:36:02;;;;;;;3.53;3.33;;;19.70;99.90;;;;;;5112820;28;20194;-83
2022/10/01 13:38:37;;;;;;;3.37;2.97;;;19.70;99.90;;;;;;5094707;28;20617;-83
2022/10/01 13:41:06;;;;;;;3.90;3.20;;;19.70;99.90;;;;;;5112362;28;20205;-82
2022/10/01 13:43:34;;;;;;;2.80;2.70;;;19.70;99.90;;;;;;5112732;28;20204;-83
2022/10/01 13:46:09;;;;;;;3.20;3.00;;;19.70;99.90;;;;;;5132863;28;20173;-83
2022/10/01 13:48:44;;;;;;;3.38;3.17;;;19.70;99.90;;;;;;5127227;28;20399;-83
2022/10/01 13:51:12;;;;;;;3.73;3.50;;;19.60;99.90;;;;;;5115697;28;20264;-82
2022/10/01 13:53:41;;;;;;;3.57;3.27;;;19.60;99.90;;;;;;5113561;28;20208;-82
2022/10/01 13:56:11;;;;;;;3.50;3.30;;;19.50;99.90;;;;;;5112240;28;20166;-82
2022/10/01 13:58:40;;;;;;;3.30;3.20;;;19.40;99.90;;;;;;5112220;28;20166;-83
2022/10/01 14:01:15;;;;;;;3.60;3.40;;;19.40;99.90;;;;;;5093824;28;20205;-84
2022/10/01 14:04:20;;;;;;;3.50;3.30;;;19.30;99.90;;;;;;5111981;28;20177;-84
2022/10/01 14:07:21;;;;;;;3.47;3.27;;;19.30;99.90;;;;;;5110979;28;20264;-83
2022/10/01 14:09:57;;;;;;;3.40;3.20;;;19.30;99.90;;;;;;5009112;28;20181;-84
2022/10/01 14:18:21;;;;;;;3.40;3.20;;;19.20;99.90;;;;;;5009110;28;20252;-85
2022/10/01 14:21:07;;;;;;;3.57;3.37;;;19.20;99.90;;;;;;4992939;28;20188;-83
2022/10/01 14:23:36;;;;;;;3.50;3.30;;;19.20;99.90;;;;;;5009077;28;20185;-83
2022/10/01 14:26:26;;;;;;;3.93;3.50;;;18.90;99.90;;;;;;5008464;28;20808;-84
2022/10/01 14:28:59;;;;;;;3.63;3.43;;;18.90;99.90;;;;;;5008558;28;20176;-83
2022/10/01 14:31:33;;;;;;;3.53;3.33;;;19.00;99.90;;;;;;4991851;28;20280;-83
2022/10/01 14:34:32;;;;;;;3.50;3.20;;;19.00;99.90;;;;;;5008836;28;20220;-84
2022/10/01 14:36:59;;;;;;;3.63;3.30;;;18.90;99.90;;;;;;5028006;28;20173;-84
2022/10/01 14:39:27;;;;;;;3.90;3.60;;;18.90;99.90;;;;;;5016460;28;20235;-84
2022/10/01 14:41:55;;;;;;;3.57;3.37;;;18.80;99.90;;;;;;5008066;28;20296;-83
2022/10/01 14:44:27;;;;;;;3.83;3.50;;;18.70;99.90;;;;;;5016222;28;20249;-84
2022/10/01 14:46:56;;;;;;;4.23;3.70;;;18.60;99.90;;;;;;5110666;28;20186;-83
2022/10/01 14:49:29;;;;;;;4.27;3.97;;;18.50;99.90;;;;;;5110687;28;20197;-84
2022/10/01 14:52:25;;;;;;;4.70;4.30;;;18.40;99.90;;;;;;5110404;28;20737;-84
2022/10/01 14:55:05;;;;;;;4.63;4.33;;;18.20;99.90;;;;;;5102134;28;20186;-84
2022/10/01 14:57:36;;;;;;;5.00;3.90;;;18.10;99.90;;;;;;5092600;28;20176;-83
2022/10/01 15:00:12;;;;;;;4.87;4.47;;;18.10;99.90;;;;;;5093907;28;20824;-85
2022/10/01 15:02:52;;;;;;;4.83;4.53;;;18.00;99.90;;;;;;5107434;28;20165;-84
2022/10/01 15:05:21;;;;;;;7.30;4.57;;;18.00;99.90;;;;;;5108030;28;20169;-83
2022/10/01 15:07:46;;;;;;;4.97;4.67;;;17.90;99.90;;;;;;5107408;28;20186;-84
2022/10/01 15:10:17;;;;;;;6.10;5.70;;;17.90;99.90;;;;;;5108996;28;20181;-83
2022/10/01 15:12:45;;;;;;;7.63;5.47;;;17.90;99.90;;;;;;5076874;28;20252;-83
2022/10/01 15:15:25;;;;;;;5.97;5.37;;;17.90;99.90;;;;;;5106845;28;20663;-84
2022/10/01 15:17:51;;;;;;;6.13;5.20;;;17.80;99.90;;;;;;5090201;28;20173;-84
2022/10/01 15:20:17;;;;;;;8.43;5.17;;;17.70;99.90;;;;;;5111415;28;20554;-83
2022/10/01 15:22:46;;;;;;;5.40;5.00;;;17.80;99.90;;;;;;5103579;28;20246;-83
2022/10/01 15:25:19;;;;;;;6.07;5.47;;;17.80;99.90;;;;;;5132099;28;20186;-82
2022/10/01 15:27:45;;;;;;;7.77;5.60;;;17.80;99.90;;;;;;5118003;28;20248;-82
2022/10/01 15:30:17;;;;;;;4.83;4.53;;;17.80;99.90;;;;;;5109462;28;20182;-83
2022/10/01 15:32:45;;;;;;;4.90;4.50;;;17.80;99.90;;;;;;5106679;28;20217;-83
2022/10/01 15:35:13;;;;;;;5.30;4.80;;;17.70;99.90;;;;;;5107254;28;20284;-83
2022/10/01 15:37:40;;;;;;;5.43;5.03;;;17.60;99.90;;;;;;5106460;28;20181;-83
2022/10/01 15:40:19;;;;;;;5.77;5.17;;;17.60;99.90;;;;;;5106777;28;20202;-82
2022/10/01 15:43:06;;;;;;;5.43;5.03;;;17.60;99.90;;;;;;5106101;28;20166;-83
2022/10/01 15:45:32;;;;;;;5.40;5.00;;;17.40;99.90;;;;;;5089539;28;20165;-82
2022/10/01 15:47:58;;;;;;;5.50;4.90;;;17.40;99.90;;;;;;5088499;28;20181;-82
2022/10/01 15:50:36;;;;;;;4.90;4.57;;;17.40;99.90;;;;;;5105793;28;20194;-82
2022/10/01 15:53:17;;;;;;;8.83;5.00;;;17.50;99.90;;;;;;5106057;28;20177;-84
2022/10/01 15:55:55;;;;;;;5.07;4.63;;;17.50;99.90;;;;;;5106097;28;20170;-84
2022/10/01 15:58:37;;;;;;;5.20;4.70;;;17.40;99.90;;;;;;5105999;28;20166;-82
2022/10/01 16:01:12;;;;;;;5.57;4.60;;;17.30;99.90;;;;;;5106858;28;20824;-84
2022/10/01 16:03:48;;;;;;;5.00;4.60;;;17.30;99.90;;;;;;5107339;28;20259;-84
2022/10/01 16:06:27;;;;;;;5.60;5.20;;;17.20;99.90;;;;;;5107889;28;20173;-84
2022/10/01 16:09:14;;;;;;;5.47;5.07;;;17.10;99.90;;;;;;5107138;28;20172;-83
2022/10/01 16:12:16;;;;;;;5.03;4.73;;;17.10;99.90;;;;;;5090199;28;20201;-84
2022/10/01 16:14:54;;;;;;;5.77;5.30;;;17.00;99.90;;;;;;5110833;28;20196;-84
2022/10/01 16:17:21;;;;;;;5.97;5.50;;;17.00;99.90;;;;;;5092844;28;20173;-84
2022/10/01 16:19:55;;;;;;;5.87;5.40;;;16.90;99.90;;;;;;5110437;28;20254;-86
2022/10/01 16:22:27;;;;;;;6.03;5.53;;;16.90;99.90;;;;;;5111192;28;20508;-84
2022/10/01 16:24:54;;;;;;;5.80;5.30;;;16.80;99.90;;;;;;5092928;28;20242;-84
2022/10/01 16:27:28;;;;;;;6.10;5.70;;;16.80;99.90;;;;;;5111509;28;20256;-85
2022/10/01 16:30:08;;;;;;;5.90;5.50;;;16.70;99.90;;;;;;5108626;28;20177;-84
2022/10/01 16:32:35;;;;;;;7.07;6.47;;;16.70;99.90;;;;;;5112984;28;20189;-84
2022/10/01 16:35:14;;;;;;;7.20;6.60;;;16.70;99.90;;;;;;5133797;28;20162;-83
2022/10/01 16:37:40;;;;;;;6.90;6.40;;;16.60;99.90;;;;;;5129944;28;20170;-84
2022/10/01 16:40:06;;;;;;;7.27;6.67;;;16.60;99.90;;;;;;5114092;28;20713;-83
2022/10/01 16:42:35;;;;;;;8.53;7.57;;;16.60;99.90;;;;;;5111561;28;20178;-83
2022/10/01 16:45:02;;;;;;;7.80;7.20;;;16.50;99.90;;;;;;5111457;28;20246;-83
2022/10/01 16:47:28;;;;;;;7.80;7.20;;;16.40;99.90;;;;;;5092209;28;20178;-83
2022/10/01 16:49:54;;;;;;;8.37;7.30;;;16.30;99.90;;;;;;5092117;28;20212;-82
2022/10/01 16:52:20;;;;;;;7.97;7.37;;;16.40;99.90;;;;;;5111052;28;20332;-83
2022/10/01 16:54:46;;;;;;;7.33;6.73;;;16.30;99.90;;;;;;5113208;28;20783;-83
2022/10/01 16:57:14;;;;;;;7.83;7.13;;;16.30;99.90;;;;;;5110407;28;20260;-83
2022/10/01 16:59:41;;;;;;;8.63;7.87;;;16.20;99.90;;;;;;5113502;28;20570;-84
2022/10/01 17:02:11;;;;;;;8.50;7.90;;;16.20;99.90;;;;;;5133035;28;20181;-83
2022/10/01 17:04:37;;;;;;;9.73;8.90;;;16.10;99.90;;;;;;5127969;28;20201;-84
2022/10/01 17:07:02;;;;;;;9.33;8.53;;;16.00;99.90;;;;;;5112842;28;20232;-84
2022/10/01 17:09:28;;;;;;;8.93;8.13;;;16.00;99.90;;;;;;5092820;28;20184;-84
2022/10/01 17:11:54;;;;;;;9.77;8.73;;;15.80;99.90;;;;;;5110460;28;20223;-83
2022/10/01 17:14:20;;;;;;;9.43;8.60;;;15.80;99.90;;;;;;5114595;28;20185;-83
2022/10/01 17:16:47;;;;;;;8.87;8.13;;;15.80;99.90;;;;;;5120116;28;20188;-85
2022/10/01 17:19:13;;;;;;;8.07;7.37;;;15.80;99.90;;;;;;5092767;28;20323;-84
2022/10/01 17:21:40;;;;;;;9.37;8.50;;;15.80;99.90;;;;;;5110182;28;20176;-84
2022/10/01 17:24:09;;;;;;;9.37;8.50;;;15.90;99.90;;;;;;5090886;28;20636;-84
2022/10/01 17:26:36;;;;;;;9.37;8.40;;;15.90;99.90;;;;;;5109608;28;20218;-83
2022/10/01 17:29:04;;;;;;;9.00;8.20;;;15.90;99.90;;;;;;5109475;28;20246;-84
2022/10/01 17:31:30;;;;;;;9.60;8.77;;;16.00;99.90;;;;;;5108848;28;20201;-84
2022/10/01 17:33:56;;;;;;;8.90;8.20;;;16.00;99.90;;;;;;5109626;28;20169;-84
2022/10/01 17:36:22;;;;;;;9.00;8.30;;;16.10;99.90;;;;;;5109651;28;20180;-83
2022/10/01 17:38:47;;;;;;;9.60;8.70;;;16.10;99.90;;;;;;5109154;28;20530;-85
2022/10/01 17:41:13;;;;;;;9.13;8.43;;;16.10;99.90;;;;;;5109121;28;20250;-85
2022/10/01 17:43:40;;;;;;;9.93;9.03;;;16.10;99.90;;;;;;5090799;28;20181;-83
2022/10/01 17:46:06;;;;;;;8.83;7.93;;;16.00;99.90;;;;;;5092037;28;20184;-83
2022/10/01 17:48:32;;;;;;;11.47;9.43;;;16.00;99.90;;;;;;5109966;28;20548;-82
2022/10/01 17:51:00;;;;;;;12.73;10.90;;;16.00;99.90;;;;;;5109462;28;20602;-82
2022/10/01 17:53:26;;;;;;;10.67;9.87;;;16.00;99.90;;;;;;5108899;28;20177;-83
2022/10/01 17:55:51;;;;;;;9.37;8.67;;;15.90;99.90;;;;;;5109643;28;20214;-82
2022/10/01 17:58:17;;;;;;;9.70;8.90;;;15.80;99.90;;;;;;5109529;28;20195;-83
2022/10/01 18:00:43;;;;;;;10.53;9.53;;;15.80;99.90;;;;;;5109444;28;20189;-82
2022/10/01 18:03:09;;;;;;;9.90;8.83;;;15.70;99.90;;;;;;5110696;28;20184;-84
2022/10/01 18:05:34;;;;;;;9.97;9.03;;;15.60;99.90;;;;;;5110063;28;20176;-83
2022/10/01 18:08:00;;;;;;;9.73;8.93;;;15.60;99.90;;;;;;5109364;28;20189;-84
2022/10/01 18:10:26;;;;;;;9.33;8.57;;;15.60;99.90;;;;;;5090347;28;20633;-83
2022/10/01 18:12:52;;;;;;;10.00;9.10;;;15.50;99.90;;;;;;5109114;28;20217;-83
2022/10/01 18:15:22;;;;;;;10.63;9.63;;;15.50;99.90;;;;;;5109265;28;20192;-83
2022/10/01 18:17:52;;;;;;;10.47;9.57;;;15.60;99.90;;;;;;5108909;28;20167;-84
2022/10/01 18:20:20;;;;;;;8.70;7.87;;;15.50;99.90;;;;;;5109843;28;20178;-83
2022/10/01 18:22:46;;;;;;;9.30;8.50;;;15.50;99.90;;;;;;5113498;28;20639;-84
2022/10/01 18:25:14;;;;;;;8.40;7.67;;;15.30;99.90;;;;;;5127383;28;20178;-82
2022/10/01 18:27:41;;;;;;;6.27;5.83;;;15.30;99.90;;;;;;5120860;28;20244;-82
2022/10/01 18:30:08;;;;;;;6.17;5.77;;;15.40;99.90;;;;;;5116191;28;20214;-84
2022/10/01 18:32:45;;;;;;;6.67;6.10;;;15.30;99.90;;;;;;5114150;28;20297;-82
2022/10/01 18:35:23;;;;;;;9.37;6.00;;;15.30;99.90;;;;;;5114049;28;20167;-82
2022/10/01 18:37:53;;;;;;;6.70;6.10;;;15.30;99.90;;;;;;5112072;28;20169;-83
2022/10/01 18:40:33;;;;;;;10.70;9.60;;;15.20;99.90;;;;;;5118192;28;20164;-82
2022/10/01 18:43:08;;;;;;;9.23;8.30;;;15.20;99.90;;;;;;5107469;28;20201;-83
2022/10/01 18:45:39;;;;;;;11.53;8.17;;;15.20;99.90;;;;;;5115628;28;20161;-84
2022/10/01 18:48:36;;;;;;;8.50;7.40;;;15.10;99.90;;;;;;5112667;28;20181;-83
2022/10/01 18:51:33;;;;;;;8.27;7.60;;;15.10;99.90;;;;;;5093588;28;20255;-83
2022/10/01 18:54:18;;;;;;;9.10;7.50;;;15.10;99.90;;;;;;5065570;28;20192;-83
2022/10/01 18:56:51;;;;;;;9.10;8.03;;;15.10;99.90;;;;;;5111149;28;20197;-83
2022/10/01 18:59:46;;;;;;;11.90;9.70;;;15.10;99.90;;;;;;5111151;28;20160;-85
2022/10/01 19:02:36;;;;;;;9.60;8.80;;;15.00;99.90;;;;;;5110762;28;20175;-85
2022/10/01 19:05:41;;;;;;;10.70;9.70;;;14.90;99.90;;;;;;5111368;28;20171;-85
2022/10/01 19:08:41;;;;;;;9.57;8.77;;;14.80;99.90;;;;;;5111833;28;20161;-83
2022/10/01 19:11:20;;;;;;;10.03;9.23;;;14.80;99.90;;;;;;5113621;28;20194;-84
2022/10/01 19:14:01;;;;;;;11.00;10.00;;;14.80;99.90;;;;;;5115658;28;20169;-84
2022/10/01 19:16:46;;;;;;;10.90;9.90;;;14.80;99.90;;;;;;5114627;28;20242;-84
2022/10/01 19:19:21;;;;;;;12.90;10.67;;;14.80;99.90;;;;;;5095147;28;20174;-84
2022/10/01 19:22:10;;;;;;;12.70;11.43;;;14.80;99.90;;;;;;5093060;28;20583;-83
2022/10/01 19:24:44;;;;;;;11.27;10.37;;;14.80;99.90;;;;;;5093803;28;20211;-83
2022/10/01 19:27:45;;;;;;;10.83;10.03;;;14.70;99.90;;;;;;5111415;28;20242;-85
2022/10/01 19:30:16;;;;;;;11.53;10.50;;;14.70;99.90;;;;;;5027368;28;20204;-85
2022/10/01 19:32:58;;;;;;;12.63;11.00;;;14.70;99.90;;;;;;5012519;28;20231;-84
2022/10/01 19:35:36;;;;;;;12.57;11.47;;;14.70;99.90;;;;;;5028227;28;20176;-84
2022/10/01 19:38:10;;;;;;;11.40;10.50;;;14.60;99.90;;;;;;5027695;28;20766;-84
2022/10/01 19:41:06;;;;;;;12.53;11.33;;;14.70;99.90;;;;;;5028156;28;20185;-84
2022/10/01 19:43:57;;;;;;;11.63;10.53;;;14.70;99.90;;;;;;5023654;28;20437;-85
2022/10/01 19:46:34;;;;;;;11.60;10.60;;;14.70;99.90;;;;;;5027510;28;20261;-83
2022/10/01 19:49:06;;;;;;;11.10;10.07;;;14.70;99.90;;;;;;5011103;28;20199;-83
2022/10/01 19:51:39;;;;;;;12.17;11.17;;;14.70;99.90;;;;;;5027067;28;20642;-83
2022/10/01 19:54:15;;;;;;;12.93;11.77;;;14.70;99.90;;;;;;5027535;28;20161;-83
2022/10/01 19:56:43;;;;;;;12.50;11.37;;;14.70;99.90;;;;;;5010178;28;20168;-84
2022/10/01 19:59:13;;;;;;;13.40;12.03;;;14.70;99.90;;;;;;5026415;28;20737;-83
2022/10/01 20:01:56;;;;;;;12.00;10.90;;;14.70;99.90;;;;;;5011064;28;20375;-85
2022/10/01 20:04:39;;;;;;;11.90;10.90;;;14.70;99.90;;;;;;5027242;28;20227;-85
2022/10/01 20:07:27;;;;;;;12.93;11.63;;;14.70;99.90;;;;;;5091848;28;20238;-82
2022/10/01 20:10:05;;;;;;;12.00;10.73;;;14.70;99.90;;;;;;5116970;28;20166;-83
2022/10/01 20:12:42;;;;;;;13.10;10.83;;;14.70;99.90;;;;;;5134812;28;20197;-85
2022/10/01 20:15:18;;;;;;;10.10;9.23;;;14.70;99.90;;;;;;5137487;28;20333;-83
2022/10/01 20:17:55;;;;;;;10.43;9.40;;;14.60;99.90;;;;;;5129209;28;20156;-84
2022/10/01 20:21:01;;;;;;;10.10;9.00;;;14.60;99.90;;;;;;5113011;28;20154;-84
2022/10/01 20:23:30;;;;;;;10.63;8.77;;;14.50;99.90;;;;;;5110119;28;20251;-84
2022/10/01 20:26:36;;;;;;;9.00;8.17;;;14.50;99.90;;;;;;5110398;28;20335;-84
2022/10/01 20:29:18;;;;;;;9.00;8.13;;;14.50;99.90;;;;;;5109786;28;20186;-83
2022/10/01 20:31:54;;;;;;;9.43;8.00;;;14.50;99.90;;;;;;5109789;28;20293;-84
2022/10/01 20:35:00;;;;;;;8.17;7.47;;;14.70;99.90;;;;;;5109751;28;20227;-84
2022/10/01 20:37:33;;;;;;;8.70;8.00;;;14.70;99.90;;;;;;5106923;28;20209;-84
2022/10/01 20:40:09;;;;;;;8.33;7.40;;;14.70;99.90;;;;;;5091312;28;20226;-84
2022/10/01 20:42:40;;;;;;;8.73;7.73;;;14.70;99.90;;;;;;5091229;28;20177;-84
2022/10/01 20:45:16;;;;;;;9.03;7.33;;;14.70;99.90;;;;;;5109610;28;20167;-84
2022/10/01 20:47:50;;;;;;;8.00;7.40;;;14.80;99.90;;;;;;5109832;28;20257;-84
2022/10/01 20:50:36;;;;;;;8.17;7.47;;;14.80;99.90;;;;;;5109545;28;20304;-83
2022/10/01 20:53:12;;;;;;;7.73;6.97;;;14.70;99.90;;;;;;5091515;28;20656;-84
2022/10/01 20:55:44;;;;;;;8.97;7.87;;;14.70;99.90;;;;;;5109469;28;20555;-85
2022/10/01 20:58:22;;;;;;;9.37;7.60;;;14.70;99.90;;;;;;5091709;28;20608;-84
2022/10/01 21:00:50;;;;;;;8.70;7.93;;;14.60;99.90;;;;;;5113529;28;20596;-84
2022/10/01 21:03:33;;;;;;;8.17;7.40;;;14.60;99.90;;;;;;5114634;28;20466;-83
2022/10/01 21:06:15;;;;;;;8.47;7.77;;;14.60;99.90;;;;;;5117789;28;20912;-82
2022/10/01 21:08:50;;;;;;;8.77;7.90;;;14.50;99.90;;;;;;5114016;28;20158;-83
2022/10/01 21:11:43;;;;;;;8.37;7.60;;;14.50;99.90;;;;;;5113110;28;20189;-82
2022/10/01 21:14:17;;;;;;;9.40;7.50;;;14.50;99.90;;;;;;5113953;28;20176;-82
2022/10/01 21:16:43;;;;;;;8.50;7.50;;;14.50;99.90;;;;;;5115857;28;20181;-82
2022/10/01 21:19:33;;;;;;;8.30;6.77;;;14.40;99.90;;;;;;5094993;28;20649;-82
2022/10/01 21:22:22;;;;;;;7.33;6.73;;;14.30;99.90;;;;;;5113128;28;20924;-82
2022/10/01 21:25:08;;;;;;;8.27;6.97;;;14.30;99.90;;;;;;5112631;28;20162;-83
2022/10/01 21:28:27;;;;;;;8.07;7.40;;;14.20;99.90;;;;;;5113096;28;20169;-83
2022/10/01 21:30:56;;;;;;;10.30;8.17;;;14.20;99.90;;;;;;5016381;28;20873;-82
2022/10/01 21:33:31;;;;;;;10.20;8.00;;;14.20;99.90;;;;;;5116438;28;20185;-84
2022/10/01 21:35:57;;;;;;;9.47;8.10;;;14.20;99.90;;;;;;5099394;28;20493;-84